Webcam Castelli Romani more information Webcam Castelli Romani


Webcam Traffico live more information Webcam Traffico live


altri nostri siti meteo:

Meteo-CloudBanner Meteo-Cloud

Pomeziameteo 1Sito sul meteo

Pomeziameteo DashboardSito sul meteo

Caput FrigorisSito sul meteo

BarcellonameteoSito sul meteo

MeteoipassiSito sul meteo

ViterbometeoSito sul meteo

TortoretometeolidoSito sul meteo

MeteospinacetoSito sul meteo

MeteoardeaSito sul meteo

MeteopalestrinaSito sul meteo

MeteocastelliSito sul meteo

MeteoiserniaSito sul meteo

RomaeurmeteoSito sul meteo

MeteomarconiaSito sul meteo

CastelnuovovomanometeoSito sul meteo

MeteogonzagaSito sul meteo

MeteonetworkInvio dai a Meteonetwork

Rete Linea MeteoInvio dai a Meteonetwork

DesotermicaBanner Desotermica



Non è richiesta alcuna attenzione speciale.    Non sono presenti avvisi meteorologici di particolare rilevanza

Report METAR

   
LIRE - Pratica di mare
Dati ricevuti: 17-11-2018 04:55
Sereno  
Sereno  
   Vento: NE 16.7 km/h
Vento: NE 16.7 km/h
Temperatura: 10°C
Temperatura Vento: 8°C
P.to Rugiada: 4°C
Umidita: 67%
Barometro: 1018 hPa
Visibilita: oltre 10 km
dettagli cloud: Sereno
LIRE 170355Z 03009KT CAVOK 10/04 Q1018 RMK FEW FEW090 VIS MIN 9999 WIND THR13 03007KT WIND THR31 /////KT BLU
LIRF - Fiumicino
Dati ricevuti: 17-11-2018 05:20
Sereno  
Sereno  
   Vento: Variabile 3.7 km/h
Vento: Variabile 3.7 km/h
Temperatura: 7°C
P.to Rugiada: 3°C
Umidita: 76%
Barometro: 1018 hPa
Visibilita: oltre 10 km
dettagli cloud: Sereno
LIRF 170420Z VRB02KT CAVOK 07/03 Q1018 NOSIG
LIRA - Ciampino
Dati ricevuti: 17-11-2018 05:20
Sereno  
Sereno  
   Vento: NE 5.6 km/h
Vento: NE 5.6 km/h
Temperatura: 6°C
Temperatura Vento: 5°C
P.to Rugiada: 0°C
Umidita: 66%
Barometro: 1018 hPa
Visibilita: oltre 10 km
dettagli cloud: Sereno
LIRA 170420Z 03003KT 340V070 CAVOK 06/00 Q1018
LIRL - Latina
Dati ricevuti: 16-11-2018 18:55
DATI Obsoleti
Parzialmente nuvoloso  
Parzialmente nuvoloso  
   Vento: NE 11.1 km/h
Vento: NE 11.1 km/h
Temperatura: 13°C
P.to Rugiada: -1°C
Umidita: 38%
Barometro: 1018 hPa
Nuvole: Parzialmente nuvoloso
Visibilita: oltre 10 km
dettagli cloud: Parzialmente nuvoloso 2500 ft,
Parzialmente nuvoloso 7000 ft
LIRL 161755Z 04006KT 9999 SCT025 SCT070 13/M01 Q1018
  

Script sviluppato da  Saratoga-weather.org Adattato per il modello da  Weerstation Leuven

Potete trovare le nostre info meteo anche a:

UK Metoffice

European Weather Network

Weather Underground

AWEKAS

Citizen Weather Observer Program (CWOP)

HAMweather, WeatherForYou, PWS Weather

Strumentazione usata:

Stazione meteo
Davis VP2

Programma gestore dati meteo
WVIEW

Server per i dati meteo
Pc-WDS5

Provider
PC-HP-6005

Davis VP2

WVIEW

Pc-WDS5

PC-HP-6005